Time;durP1;ratioP1;P1;durP2;ratioP2;P2;SDS_P1;SDS_P2;PMS_P1;PMS_P2;Temp;Humidity;BMP_temperature;BMP_pressure;BME280_temperature;BME280_humidity;BME280_pressure;Samples;Min_cycle;Max_cycle;Signal;HPM_P1;HPM_P2
2024/01/06 00:00:07;;;;;;;43.10;23.70;;;4.20;99.90;;;;;;2072497;28;20487;-77
2024/01/06 00:01:15;;;;;;;38.63;22.92;;;4.20;99.90;;;;;;2081245;28;20033;-77
2024/01/06 00:02:15;;;;;;;42.50;23.50;;;4.20;99.90;;;;;;2081969;28;20041;-77
2024/01/06 00:03:16;;;;;;;40.17;23.02;;;4.20;99.90;;;;;;2071807;28;20018;-76
2024/01/06 00:04:16;;;;;;;42.25;23.13;;;4.30;99.90;;;;;;2072599;28;20064;-77
2024/01/06 00:05:17;;;;;;;40.88;22.27;;;4.30;99.90;;;;;;2071417;28;20502;-76
2024/01/06 00:06:17;;;;;;;39.03;22.23;;;4.20;99.90;;;;;;2073014;28;20067;-76
2024/01/06 00:07:18;;;;;;;44.08;22.73;;;4.20;99.90;;;;;;2087863;28;20139;-76
2024/01/06 00:08:18;;;;;;;41.95;23.48;;;4.20;99.90;;;;;;2081587;28;20034;-76
2024/01/06 00:09:19;;;;;;;41.83;23.38;;;4.20;99.90;;;;;;2072019;28;20671;-74
2024/01/06 00:10:19;;;;;;;43.60;23.20;;;4.10;99.90;;;;;;2072714;28;20047;-72
2024/01/06 00:11:22;;;;;;;40.83;23.23;;;4.10;99.90;;;;;;2063163;28;20052;-75
2024/01/06 00:12:22;;;;;;;47.25;25.13;;;4.10;99.90;;;;;;2064801;28;20022;-75
2024/01/06 00:13:23;;;;;;;51.95;26.27;;;4.10;99.90;;;;;;2063218;28;20049;-79
2024/01/06 00:14:23;;;;;;;53.22;25.35;;;4.00;99.90;;;;;;2065585;28;20482;-82
2024/01/06 00:15:24;;;;;;;56.22;26.65;;;4.00;99.90;;;;;;2062562;28;20030;-81
2024/01/06 00:16:24;;;;;;;52.55;26.55;;;4.00;99.90;;;;;;2081950;28;20036;-82
2024/01/06 00:17:25;;;;;;;51.60;26.05;;;4.00;99.90;;;;;;2081606;28;20108;-79
2024/01/06 00:18:26;;;;;;;47.95;25.65;;;4.00;99.90;;;;;;2076728;28;20048;-80
2024/01/06 00:19:26;;;;;;;44.72;24.98;;;4.00;99.90;;;;;;2063437;28;20253;-80
2024/01/06 00:20:27;;;;;;;44.28;24.60;;;4.00;99.90;;;;;;2056426;28;20089;-79
2024/01/06 00:21:27;;;;;;;41.00;23.42;;;4.00;99.90;;;;;;2073210;28;20036;-80
2024/01/06 00:22:28;;;;;;;41.38;24.15;;;4.00;99.90;;;;;;2077798;28;20018;-80
2024/01/06 00:23:28;;;;;;;45.10;23.60;;;4.10;99.90;;;;;;2066611;28;20057;-80
2024/01/06 00:24:29;;;;;;;41.97;24.13;;;4.10;99.90;;;;;;2075144;28;20067;-80
2024/01/06 00:25:30;;;;;;;44.38;24.38;;;4.00;99.90;;;;;;2074026;28;20100;-80
2024/01/06 00:26:30;;;;;;;41.88;24.17;;;4.00;99.90;;;;;;2087737;28;20075;-79
2024/01/06 00:27:30;;;;;;;45.40;24.75;;;4.00;99.90;;;;;;2087482;28;20075;-79
2024/01/06 00:28:31;;;;;;;44.00;24.73;;;4.00;99.90;;;;;;2088271;28;20021;-79
2024/01/06 00:29:31;;;;;;;44.42;25.02;;;4.00;99.90;;;;;;2085985;28;20033;-80
2024/01/06 00:30:32;;;;;;;46.70;25.08;;;4.10;99.90;;;;;;2080642;28;20035;-81
2024/01/06 00:31:33;;;;;;;43.88;25.02;;;4.10;99.90;;;;;;2082857;28;20687;-81
2024/01/06 00:32:33;;;;;;;43.88;25.23;;;4.10;99.90;;;;;;2073240;28;20040;-79
2024/01/06 00:33:34;;;;;;;47.28;25.92;;;4.10;99.90;;;;;;2073107;28;20057;-80
2024/01/06 00:34:34;;;;;;;47.75;26.77;;;4.00;99.90;;;;;;2068064;28;20092;-80
2024/01/06 00:35:35;;;;;;;46.20;27.15;;;4.00;99.90;;;;;;2065282;28;20476;-80
2024/01/06 00:36:35;;;;;;;47.85;26.30;;;4.00;99.90;;;;;;2080563;28;20044;-80
2024/01/06 00:37:36;;;;;;;45.88;26.10;;;4.00;99.90;;;;;;2086866;28;20024;-79
2024/01/06 00:38:36;;;;;;;46.53;26.38;;;3.90;99.90;;;;;;2085799;28;20482;-80
2024/01/06 00:39:37;;;;;;;46.97;27.45;;;3.90;99.90;;;;;;2081204;28;20116;-80
2024/01/06 00:40:38;;;;;;;47.50;27.13;;;3.90;99.90;;;;;;2084205;28;20017;-72
2024/01/06 00:41:38;;;;;;;48.85;27.95;;;3.90;99.90;;;;;;2074561;28;20037;-72
2024/01/06 00:42:39;;;;;;;51.70;27.55;;;4.00;99.90;;;;;;2067985;28;20101;-72
2024/01/06 00:43:40;;;;;;;51.17;28.40;;;3.90;99.90;;;;;;2067994;28;20117;-73
2024/01/06 00:44:40;;;;;;;48.30;26.92;;;4.00;99.90;;;;;;2068095;28;20140;-72
2024/01/06 00:45:41;;;;;;;55.30;28.20;;;4.00;99.90;;;;;;2082882;28;20037;-72
2024/01/06 00:46:41;;;;;;;47.35;27.15;;;4.00;99.90;;;;;;2076329;28;20091;-73
2024/01/06 00:47:42;;;;;;;51.53;28.88;;;3.90;99.90;;;;;;2067039;28;20030;-74
2024/01/06 00:48:42;;;;;;;54.10;28.17;;;3.90;99.90;;;;;;2073579;28;20022;-72
2024/01/06 00:49:43;;;;;;;53.03;29.13;;;3.90;99.90;;;;;;2077959;28;20034;-73
2024/01/06 00:50:43;;;;;;;49.45;28.67;;;3.90;99.90;;;;;;2071120;28;21001;-73
2024/01/06 00:51:44;;;;;;;51.80;28.98;;;3.90;99.90;;;;;;2071632;28;20733;-74
2024/01/06 00:52:45;;;;;;;53.30;27.98;;;3.90;99.90;;;;;;2076246;28;20112;-74
2024/01/06 00:53:45;;;;;;;51.20;28.63;;;3.90;99.90;;;;;;2075667;28;20037;-73
2024/01/06 00:54:47;;;;;;;56.33;29.45;;;3.90;99.90;;;;;;2084291;28;20060;-73
2024/01/06 00:55:47;;;;;;;48.00;27.80;;;3.90;99.90;;;;;;2083902;28;20033;-73
2024/01/06 00:56:48;;;;;;;54.13;28.50;;;3.90;99.90;;;;;;2080557;28;20035;-73
2024/01/06 00:57:49;;;;;;;52.90;28.25;;;3.90;99.90;;;;;;2073412;28;20048;-73
2024/01/06 00:58:49;;;;;;;52.88;28.58;;;3.90;99.90;;;;;;2073432;28;20518;-72
2024/01/06 00:59:50;;;;;;;51.25;28.65;;;3.90;99.90;;;;;;2075053;28;20826;-73
2024/01/06 01:00:51;;;;;;;49.53;29.05;;;3.80;99.90;;;;;;2074654;28;20020;-73
2024/01/06 01:01:51;;;;;;;51.97;28.80;;;3.80;99.90;;;;;;2072279;28;20466;-72
2024/01/06 01:02:52;;;;;;;51.13;28.77;;;3.80;99.90;;;;;;2085192;28;20029;-75
2024/01/06 01:03:53;;;;;;;51.33;29.08;;;3.80;99.90;;;;;;2077631;28;20026;-73
2024/01/06 01:04:53;;;;;;;49.65;28.35;;;3.80;99.90;;;;;;2077418;28;20402;-73
2024/01/06 01:05:54;;;;;;;52.05;29.45;;;3.80;99.90;;;;;;2083383;28;20043;-73
2024/01/06 01:06:54;;;;;;;54.85;29.13;;;3.80;99.90;;;;;;2068660;28;20370;-73
2024/01/06 01:07:55;;;;;;;52.92;29.10;;;3.80;99.90;;;;;;2074542;28;20082;-72
2024/01/06 01:08:55;;;;;;;52.70;29.13;;;3.70;99.90;;;;;;2071848;28;20041;-73
2024/01/06 01:09:56;;;;;;;56.95;30.20;;;3.70;99.90;;;;;;2068572;28;20038;-73
2024/01/06 01:10:57;;;;;;;55.55;29.55;;;3.70;99.90;;;;;;2076127;28;20029;-73
2024/01/06 01:11:57;;;;;;;58.80;31.08;;;3.70;99.90;;;;;;2069531;28;20029;-73
2024/01/06 01:12:58;;;;;;;58.25;31.92;;;3.70;99.90;;;;;;2072573;28;20025;-73
2024/01/06 01:13:59;;;;;;;58.10;31.17;;;3.70;99.90;;;;;;2076919;28;20022;-74
2024/01/06 01:14:59;;;;;;;59.10;31.75;;;3.70;99.90;;;;;;2084552;28;20086;-74
2024/01/06 01:16:00;;;;;;;57.80;31.30;;;3.70;99.90;;;;;;2083551;28;20028;-73
2024/01/06 01:17:00;;;;;;;52.85;29.30;;;3.70;99.90;;;;;;2084027;28;20056;-73
2024/01/06 01:18:01;;;;;;;53.67;29.85;;;3.70;99.90;;;;;;2078400;28;20117;-73
2024/01/06 01:19:02;;;;;;;53.60;29.95;;;3.70;99.90;;;;;;2077279;28;20501;-73
2024/01/06 01:20:03;;;;;;;59.22;31.45;;;3.70;99.90;;;;;;2067166;28;20026;-73
2024/01/06 01:21:03;;;;;;;55.92;30.35;;;3.80;99.90;;;;;;2073894;28;20075;-73
2024/01/06 01:22:04;;;;;;;55.97;29.20;;;3.70;99.90;;;;;;2083066;28;20036;-74
2024/01/06 01:23:04;;;;;;;59.95;30.77;;;3.80;99.90;;;;;;2075989;28;20029;-73
2024/01/06 01:24:05;;;;;;;53.70;29.42;;;3.80;99.90;;;;;;2076354;28;20110;-73
2024/01/06 01:25:07;;;;;;;54.30;29.70;;;3.80;99.90;;;;;;2068467;28;20032;-73
2024/01/06 01:26:08;;;;;;;58.60;30.65;;;3.80;99.90;;;;;;2073177;28;20025;-72
2024/01/06 01:27:08;;;;;;;53.70;29.85;;;3.80;99.90;;;;;;2081109;28;20021;-72
2024/01/06 01:28:09;;;;;;;58.67;31.00;;;3.80;99.90;;;;;;2069351;28;20034;-72
2024/01/06 01:29:09;;;;;;;54.38;30.63;;;3.70;99.90;;;;;;2079303;28;20025;-73
2024/01/06 01:30:10;;;;;;;53.83;29.42;;;3.70;99.90;;;;;;2082393;28;20028;-74
2024/01/06 01:31:13;;;;;;;54.53;29.70;;;3.70;99.90;;;;;;2082054;28;20052;-73
2024/01/06 01:32:13;;;;;;;53.00;29.88;;;3.70;99.90;;;;;;2069419;28;20111;-74
2024/01/06 01:33:14;;;;;;;59.88;30.92;;;3.70;99.90;;;;;;2070048;28;20562;-73
2024/01/06 01:34:14;;;;;;;52.00;30.15;;;3.70;99.90;;;;;;2080378;28;20049;-73
2024/01/06 01:35:15;;;;;;;57.47;30.73;;;3.70;99.90;;;;;;2084208;28;20044;-73
2024/01/06 01:36:15;;;;;;;55.05;30.30;;;3.70;99.90;;;;;;2080944;28;20061;-73
2024/01/06 01:37:16;;;;;;;57.28;30.63;;;3.70;99.90;;;;;;2066645;28;20037;-73
2024/01/06 01:38:16;;;;;;;54.22;30.52;;;3.70;99.90;;;;;;2065797;28;20030;-73
2024/01/06 01:39:17;;;;;;;58.45;30.67;;;3.70;99.90;;;;;;2084333;28;20021;-73
2024/01/06 01:40:17;;;;;;;57.65;31.08;;;3.70;99.90;;;;;;2069246;28;20018;-74
2024/01/06 01:41:18;;;;;;;57.03;30.85;;;3.70;99.90;;;;;;2075099;28;20030;-73
2024/01/06 01:42:18;;;;;;;55.20;30.27;;;3.70;99.90;;;;;;2071298;28;20603;-73
2024/01/06 01:43:19;;;;;;;57.53;30.73;;;3.60;99.90;;;;;;2069445;28;20181;-72
2024/01/06 01:44:20;;;;;;;56.63;30.50;;;3.60;99.90;;;;;;2079364;28;20037;-73
2024/01/06 01:45:20;;;;;;;59.47;30.60;;;3.60;99.90;;;;;;2078731;28;20711;-73
2024/01/06 01:46:21;;;;;;;57.15;31.23;;;3.70;99.90;;;;;;2080307;28;20060;-73
2024/01/06 01:47:22;;;;;;;55.38;29.90;;;3.70;99.90;;;;;;2077256;28;20481;-73
2024/01/06 01:48:24;;;;;;;55.88;30.33;;;3.60;99.90;;;;;;2074534;28;20029;-73
2024/01/06 01:49:26;;;;;;;56.78;29.75;;;3.60;99.90;;;;;;2084220;28;20032;-73
2024/01/06 01:50:27;;;;;;;58.05;31.25;;;3.60;99.90;;;;;;2063399;28;20022;-73
2024/01/06 01:51:30;;;;;;;57.75;31.42;;;3.60;99.90;;;;;;2063792;28;20476;-73
2024/01/06 01:52:32;;;;;;;59.13;31.08;;;3.60;99.90;;;;;;2067620;28;20034;-73
2024/01/06 01:53:33;;;;;;;60.63;32.05;;;3.50;99.90;;;;;;2052252;28;20055;-74
2024/01/06 01:54:34;;;;;;;55.50;31.10;;;3.60;99.90;;;;;;2074965;28;20049;-73
2024/01/06 01:55:35;;;;;;;58.47;31.20;;;3.60;99.90;;;;;;2067964;28;20033;-73
2024/01/06 01:56:37;;;;;;;57.53;30.92;;;3.60;99.90;;;;;;2064887;28;20038;-72
2024/01/06 01:57:38;;;;;;;59.00;31.67;;;3.60;99.90;;;;;;2074373;28;20029;-73
2024/01/06 01:58:40;;;;;;;60.38;31.80;;;3.50;99.90;;;;;;2052316;28;20062;-74
2024/01/06 01:59:41;;;;;;;59.17;32.90;;;3.50;99.90;;;;;;2058310;28;20045;-75
2024/01/06 02:00:42;;;;;;;64.97;32.92;;;3.50;99.90;;;;;;2070402;28;20037;-74
2024/01/06 02:01:43;;;;;;;63.92;32.78;;;3.50;99.90;;;;;;2079687;28;20040;-74
2024/01/06 02:02:43;;;;;;;59.90;31.40;;;3.50;99.90;;;;;;2079073;28;20064;-72
2024/01/06 02:03:44;;;;;;;59.33;31.83;;;3.50;99.90;;;;;;2081627;28;20025;-73
2024/01/06 02:04:48;;;;;;;60.13;32.22;;;3.40;99.90;;;;;;2070650;28;20072;-73
2024/01/06 02:05:48;;;;;;;62.60;32.60;;;3.40;99.90;;;;;;2076586;28;20060;-73
2024/01/06 02:06:49;;;;;;;62.80;32.47;;;3.40;99.90;;;;;;2068346;28;20026;-73
2024/01/06 02:07:50;;;;;;;64.22;32.70;;;3.30;99.90;;;;;;2072029;28;20030;-72
2024/01/06 02:08:51;;;;;;;54.20;30.27;;;3.40;99.90;;;;;;2072201;28;20028;-73
2024/01/06 02:09:52;;;;;;;54.92;30.77;;;3.30;99.90;;;;;;2076476;28;20028;-73
2024/01/06 02:10:55;;;;;;;58.67;31.55;;;3.30;99.90;;;;;;2071545;28;20034;-72
2024/01/06 02:11:57;;;;;;;57.17;32.08;;;3.30;99.90;;;;;;2075843;28;20168;-73
2024/01/06 02:13:10;;;;;;;56.72;31.63;;;3.30;99.90;;;;;;2069255;28;20030;-72
2024/01/06 02:14:11;;;;;;;55.83;31.15;;;3.20;99.90;;;;;;2076950;28;20033;-74
2024/01/06 02:15:11;;;;;;;62.20;31.67;;;3.20;99.90;;;;;;2090653;28;20036;-75
2024/01/06 02:16:12;;;;;;;57.25;31.52;;;3.20;99.90;;;;;;2068080;28;20057;-73
2024/01/06 02:17:12;;;;;;;58.30;31.27;;;3.10;99.90;;;;;;2067703;28;20026;-74
2024/01/06 02:18:13;;;;;;;54.22;28.90;;;3.10;99.90;;;;;;2075505;28;20120;-74
2024/01/06 02:19:15;;;;;;;48.95;28.45;;;3.10;99.90;;;;;;2075438;28;20029;-72
2024/01/06 02:20:19;;;;;;;53.55;28.40;;;3.10;99.90;;;;;;2084389;28;20025;-73
2024/01/06 02:21:22;;;;;;;51.13;28.88;;;3.10;99.90;;;;;;2081533;28;20803;-73
2024/01/06 02:22:22;;;;;;;51.95;28.85;;;3.00;99.90;;;;;;2068237;28;20624;-73
2024/01/06 02:23:23;;;;;;;46.72;24.85;;;3.00;99.90;;;;;;2071870;28;20038;-73
2024/01/06 02:24:23;;;;;;;48.25;26.02;;;3.00;99.90;;;;;;2082332;28;20021;-73
2024/01/06 02:25:24;;;;;;;48.60;26.02;;;3.00;99.90;;;;;;2069956;28;20033;-73
2024/01/06 02:26:25;;;;;;;45.13;24.40;;;3.00;99.90;;;;;;2082310;28;20052;-74
2024/01/06 02:27:25;;;;;;;41.08;23.20;;;3.00;99.90;;;;;;2084378;28;20025;-74
2024/01/06 02:28:26;;;;;;;40.60;23.10;;;3.00;99.90;;;;;;2071116;28;20026;-73
2024/01/06 02:29:27;;;;;;;39.33;22.75;;;3.00;99.90;;;;;;2064675;28;20029;-73
2024/01/06 02:30:27;;;;;;;39.67;23.77;;;2.90;99.90;;;;;;2075174;28;20045;-73
2024/01/06 02:31:28;;;;;;;46.20;24.83;;;2.90;99.90;;;;;;2063109;28;20037;-73
2024/01/06 02:32:28;;;;;;;47.35;24.60;;;2.90;99.90;;;;;;2054583;28;20037;-73
2024/01/06 02:33:29;;;;;;;43.13;24.20;;;2.80;99.90;;;;;;2081357;28;20091;-73
2024/01/06 02:34:29;;;;;;;45.78;25.08;;;2.80;99.90;;;;;;2080264;28;20037;-73
2024/01/06 02:35:30;;;;;;;45.22;24.92;;;2.80;99.90;;;;;;2072488;28;20071;-73
2024/01/06 02:36:30;;;;;;;41.50;23.83;;;2.80;99.90;;;;;;2069307;28;20045;-73
2024/01/06 02:37:31;;;;;;;44.92;24.30;;;2.80;99.90;;;;;;2071685;28;20073;-76
2024/01/06 02:38:31;;;;;;;43.53;23.98;;;2.80;99.90;;;;;;2069398;28;20029;-73
2024/01/06 02:39:32;;;;;;;40.60;23.05;;;2.80;99.90;;;;;;2072268;28;20075;-73
2024/01/06 02:40:33;;;;;;;44.75;23.80;;;2.80;99.90;;;;;;2070866;28;20099;-73
2024/01/06 02:41:33;;;;;;;44.00;23.20;;;2.80;99.90;;;;;;2073025;28;20966;-73
2024/01/06 02:42:34;;;;;;;43.00;23.95;;;2.80;99.90;;;;;;2072973;28;20563;-73
2024/01/06 02:43:34;;;;;;;40.65;23.38;;;2.80;99.90;;;;;;2065471;28;20042;-73
2024/01/06 02:44:35;;;;;;;38.92;23.15;;;2.70;99.90;;;;;;2066653;28;20029;-73
2024/01/06 02:45:35;;;;;;;43.08;24.05;;;2.70;99.90;;;;;;2084055;28;20052;-73
2024/01/06 02:46:36;;;;;;;41.67;23.55;;;2.70;99.90;;;;;;2071713;28;20014;-73
2024/01/06 02:47:36;;;;;;;45.40;24.75;;;2.70;99.90;;;;;;2076067;28;20029;-74
2024/01/06 02:48:37;;;;;;;39.03;23.02;;;2.70;99.90;;;;;;2080634;28;20094;-74
2024/01/06 02:49:37;;;;;;;43.42;23.48;;;2.70;99.90;;;;;;2070298;28;20710;-74
2024/01/06 02:50:38;;;;;;;39.95;23.48;;;2.70;99.90;;;;;;2064068;28;20092;-74
2024/01/06 02:51:38;;;;;;;42.30;24.33;;;2.70;99.90;;;;;;2078960;28;20513;-74
2024/01/06 02:52:39;;;;;;;42.60;23.77;;;2.80;99.90;;;;;;2072668;28;20044;-73
2024/01/06 02:53:39;;;;;;;41.05;23.40;;;2.70;99.90;;;;;;2057804;28;20170;-74
2024/01/06 02:54:40;;;;;;;41.47;24.13;;;2.70;99.90;;;;;;2072708;28;20037;-73
2024/01/06 02:55:41;;;;;;;45.10;25.42;;;2.70;99.90;;;;;;2084018;28;20615;-73
2024/01/06 02:56:41;;;;;;;45.42;25.42;;;2.80;99.90;;;;;;2070073;28;20038;-74
2024/01/06 02:57:42;;;;;;;44.08;25.10;;;2.80;99.90;;;;;;2083784;28;20112;-73
2024/01/06 02:58:42;;;;;;;42.63;25.88;;;2.80;99.90;;;;;;2075957;28;20033;-73
2024/01/06 02:59:43;;;;;;;46.50;26.38;;;2.70;99.90;;;;;;2084383;28;20033;-74
2024/01/06 03:00:43;;;;;;;44.95;25.30;;;2.80;99.90;;;;;;2084001;28;20035;-75
2024/01/06 03:01:44;;;;;;;47.10;26.70;;;2.80;99.90;;;;;;2082204;28;20490;-74
2024/01/06 03:02:45;;;;;;;46.42;25.98;;;2.80;99.90;;;;;;2067924;28;20045;-73
2024/01/06 03:03:45;;;;;;;51.63;27.17;;;2.80;99.90;;;;;;2063694;28;20035;-73
2024/01/06 03:04:46;;;;;;;47.97;26.88;;;2.80;99.90;;;;;;2068963;28;20573;-74
2024/01/06 03:05:48;;;;;;;48.22;26.92;;;2.80;99.90;;;;;;2077475;28;20029;-73
2024/01/06 03:06:53;;;;;;;48.55;27.27;;;2.70;99.90;;;;;;2076214;28;20025;-74
2024/01/06 03:07:53;;;;;;;45.42;25.95;;;2.70;99.90;;;;;;2067131;28;20101;-73
2024/01/06 03:08:54;;;;;;;48.20;26.02;;;2.70;99.90;;;;;;2067240;28;20467;-74
2024/01/06 03:09:54;;;;;;;45.13;24.90;;;2.60;99.90;;;;;;2058902;28;20476;-73
2024/01/06 03:10:55;;;;;;;46.70;25.65;;;2.60;99.90;;;;;;2079195;28;20029;-72
2024/01/06 03:11:56;;;;;;;43.25;24.75;;;2.60;99.90;;;;;;2079049;28;20039;-73
2024/01/06 03:12:56;;;;;;;45.35;25.98;;;2.60;99.90;;;;;;2067410;28;20022;-74
2024/01/06 03:13:57;;;;;;;46.90;25.58;;;2.60;99.90;;;;;;2075547;28;20037;-73
2024/01/06 03:14:57;;;;;;;45.95;24.52;;;2.60;99.90;;;;;;2075343;28;20033;-73
2024/01/06 03:16:03;;;;;;;47.95;24.75;;;2.60;99.90;;;;;;2067404;28;20044;-73
2024/01/06 03:17:04;;;;;;;44.28;24.25;;;2.50;99.90;;;;;;2066498;28;20045;-73
2024/01/06 03:18:05;;;;;;;39.15;22.63;;;2.50;99.90;;;;;;2061751;28;20029;-72
2024/01/06 03:19:06;;;;;;;38.40;22.90;;;2.50;99.90;;;;;;2069787;28;20081;-73
2024/01/06 03:20:07;;;;;;;41.50;23.33;;;2.50;99.90;;;;;;2075775;28;20057;-73
2024/01/06 03:21:20;;;;;;;44.55;23.35;;;2.50;99.90;;;;;;2083862;28;20086;-73
2024/01/06 03:22:20;;;;;;;43.05;23.50;;;2.50;99.90;;;;;;2078335;28;20045;-73
2024/01/06 03:23:21;;;;;;;40.03;23.42;;;2.50;99.90;;;;;;2074695;28;20025;-73
2024/01/06 03:24:23;;;;;;;44.30;23.35;;;2.40;99.90;;;;;;2077261;28;20029;-73
2024/01/06 03:25:24;;;;;;;38.97;22.40;;;2.40;99.90;;;;;;2075168;28;20100;-73
2024/01/06 03:26:24;;;;;;;42.25;22.63;;;2.40;99.90;;;;;;2062139;28;20471;-73
2024/01/06 03:27:25;;;;;;;38.65;22.15;;;2.40;99.90;;;;;;2066516;28;20744;-74
2024/01/06 03:28:26;;;;;;;38.38;22.20;;;2.40;99.90;;;;;;2064193;28;20030;-74
2024/01/06 03:29:26;;;;;;;36.65;21.92;;;2.40;99.90;;;;;;2079557;28;20036;-73
2024/01/06 03:30:27;;;;;;;39.28;21.95;;;2.40;99.90;;;;;;2078236;28;20026;-74
2024/01/06 03:31:27;;;;;;;39.00;21.38;;;2.40;99.90;;;;;;2063948;28;20026;-74
2024/01/06 03:32:28;;;;;;;37.95;22.67;;;2.40;99.90;;;;;;2062863;28;20117;-73
2024/01/06 03:33:29;;;;;;;38.63;22.08;;;2.30;99.90;;;;;;2084059;28;20024;-74
2024/01/06 03:34:29;;;;;;;39.50;21.98;;;2.30;99.90;;;;;;2075033;28;20503;-75
2024/01/06 03:35:30;;;;;;;39.95;22.17;;;2.30;99.90;;;;;;2070991;28;20022;-73
2024/01/06 03:36:30;;;;;;;38.05;22.17;;;2.30;99.90;;;;;;2079508;28;20047;-72
2024/01/06 03:37:31;;;;;;;43.03;22.70;;;2.30;99.90;;;;;;2075173;28;20021;-73
2024/01/06 03:38:32;;;;;;;40.60;22.20;;;2.30;99.90;;;;;;2066364;28;20033;-72
2024/01/06 03:39:32;;;;;;;42.45;22.52;;;2.20;99.90;;;;;;2059194;28;20031;-73
2024/01/06 03:40:33;;;;;;;41.45;22.42;;;2.20;99.90;;;;;;2068078;28;20076;-73
2024/01/06 03:41:33;;;;;;;40.80;22.60;;;2.20;99.90;;;;;;2075496;28;20124;-73
2024/01/06 03:42:36;;;;;;;42.90;22.38;;;2.20;99.90;;;;;;2074793;28;20029;-75
2024/01/06 03:43:37;;;;;;;40.08;22.17;;;2.20;99.90;;;;;;2067333;28;20037;-73
2024/01/06 03:44:37;;;;;;;37.53;21.25;;;2.20;99.90;;;;;;2068445;28;20113;-73
2024/01/06 03:45:38;;;;;;;38.15;21.33;;;2.20;99.90;;;;;;2075660;28;20018;-72
2024/01/06 03:46:38;;;;;;;37.78;21.15;;;2.20;99.90;;;;;;2075426;28;20100;-73
2024/01/06 03:47:39;;;;;;;38.95;21.23;;;2.30;99.90;;;;;;2075900;28;20527;-73
2024/01/06 03:48:39;;;;;;;38.65;21.60;;;2.30;99.90;;;;;;2070334;28;20117;-73
2024/01/06 03:49:40;;;;;;;40.30;22.30;;;2.20;99.90;;;;;;2067519;28;20026;-73
2024/01/06 03:50:40;;;;;;;40.72;22.23;;;2.20;99.90;;;;;;2070343;28;20450;-73
2024/01/06 03:51:41;;;;;;;39.13;21.38;;;2.20;99.90;;;;;;2078131;28;20029;-74
2024/01/06 03:52:41;;;;;;;41.83;22.65;;;2.10;99.90;;;;;;2076514;28;20040;-73
2024/01/06 03:53:42;;;;;;;38.20;21.58;;;2.10;99.90;;;;;;2070180;28;20112;-74
2024/01/06 03:54:42;;;;;;;39.28;21.77;;;2.10;99.90;;;;;;2070577;28;20049;-74
2024/01/06 03:55:43;;;;;;;36.70;20.10;;;2.10;99.90;;;;;;2076697;28;20037;-73
2024/01/06 03:56:43;;;;;;;37.95;21.48;;;2.00;99.90;;;;;;2073280;28;20395;-74
2024/01/06 03:57:44;;;;;;;40.10;21.95;;;2.00;99.90;;;;;;2080811;28;20019;-75
2024/01/06 03:58:44;;;;;;;42.38;22.00;;;2.00;99.90;;;;;;2072042;28;20037;-74
2024/01/06 03:59:45;;;;;;;40.53;22.27;;;2.00;99.90;;;;;;2062475;28;20182;-75
2024/01/06 04:00:45;;;;;;;41.90;22.52;;;2.00;99.90;;;;;;2065483;28;20030;-74
2024/01/06 04:01:46;;;;;;;39.10;22.30;;;2.00;99.90;;;;;;2078301;28;20029;-74
2024/01/06 04:02:47;;;;;;;41.30;22.27;;;2.00;99.90;;;;;;2083763;28;20051;-73
2024/01/06 04:03:47;;;;;;;40.30;22.17;;;2.00;99.90;;;;;;2075540;28;20065;-74
2024/01/06 04:04:48;;;;;;;41.33;21.35;;;1.90;99.90;;;;;;2074981;28;20155;-74
2024/01/06 04:05:48;;;;;;;40.20;22.05;;;1.90;99.90;;;;;;2069685;28;20026;-74
2024/01/06 04:06:49;;;;;;;39.67;21.50;;;1.90;99.90;;;;;;2079505;28;20025;-74
2024/01/06 04:07:49;;;;;;;39.67;21.13;;;1.90;99.90;;;;;;2072983;28;20582;-74
2024/01/06 04:08:50;;;;;;;40.80;21.45;;;2.00;99.90;;;;;;2075542;28;20506;-72
2024/01/06 04:09:51;;;;;;;40.05;21.35;;;1.90;99.90;;;;;;2071631;28;20052;-75
2024/01/06 04:10:51;;;;;;;38.70;22.40;;;1.90;99.90;;;;;;2078955;28;20037;-73
2024/01/06 04:11:52;;;;;;;38.63;21.80;;;1.90;99.90;;;;;;2080405;28;20028;-74
2024/01/06 04:12:52;;;;;;;40.53;21.13;;;1.90;99.90;;;;;;2079059;28;20080;-73
2024/01/06 04:13:53;;;;;;;33.38;19.35;;;1.90;99.90;;;;;;2083902;28;20607;-73
2024/01/06 04:14:53;;;;;;;36.75;20.98;;;1.90;99.90;;;;;;2083737;28;20025;-73
2024/01/06 04:15:54;;;;;;;39.15;21.35;;;1.90;99.90;;;;;;2079846;28;20419;-73
2024/01/06 04:16:56;;;;;;;39.08;20.63;;;1.90;99.90;;;;;;2071315;28;20324;-74
2024/01/06 04:18:03;;;;;;;39.17;21.27;;;1.90;99.90;;;;;;2076310;28;20036;-73
2024/01/06 04:19:06;;;;;;;37.00;20.80;;;1.90;99.90;;;;;;2069152;28;20029;-73
2024/01/06 04:20:07;;;;;;;36.90;21.15;;;2.00;99.90;;;;;;2065609;28;20037;-74
2024/01/06 04:21:08;;;;;;;39.35;22.25;;;1.90;99.90;;;;;;2083849;28;20475;-74
2024/01/06 04:22:09;;;;;;;36.95;20.33;;;1.90;99.90;;;;;;2070823;28;20385;-74
2024/01/06 04:23:09;;;;;;;36.42;20.35;;;1.90;99.90;;;;;;2074897;28;20060;-73
2024/01/06 04:24:10;;;;;;;41.42;21.15;;;1.90;99.90;;;;;;2084045;28;20204;-74
2024/01/06 04:25:10;;;;;;;37.00;21.00;;;1.80;99.90;;;;;;2076495;28;20084;-74
2024/01/06 04:26:12;;;;;;;36.92;21.10;;;1.80;99.90;;;;;;2079379;28;20033;-73
2024/01/06 04:27:12;;;;;;;37.25;20.65;;;1.80;99.90;;;;;;2083891;28;20033;-73
2024/01/06 04:28:13;;;;;;;38.08;21.20;;;1.80;99.90;;;;;;2077977;28;20025;-73
2024/01/06 04:29:14;;;;;;;36.53;20.67;;;1.80;99.90;;;;;;2075708;28;20018;-74
2024/01/06 04:30:15;;;;;;;39.25;21.90;;;1.80;99.90;;;;;;2075708;28;20387;-74
2024/01/06 04:31:15;;;;;;;40.85;22.27;;;1.80;99.90;;;;;;2071178;28;20104;-72
2024/01/06 04:32:16;;;;;;;37.67;20.88;;;1.80;99.90;;;;;;2068913;28;20492;-73
2024/01/06 04:33:16;;;;;;;38.40;21.42;;;1.80;99.90;;;;;;2068463;28;20041;-73
2024/01/06 04:34:17;;;;;;;39.25;22.17;;;1.80;99.90;;;;;;2072523;28;20413;-74
2024/01/06 04:35:19;;;;;;;38.92;22.08;;;1.80;99.90;;;;;;2076423;28;20562;-73
2024/01/06 04:36:20;;;;;;;38.83;21.48;;;1.80;99.90;;;;;;2068189;28;20022;-74
2024/01/06 04:37:20;;;;;;;39.28;21.92;;;1.80;99.90;;;;;;2075917;28;20399;-74
2024/01/06 04:38:21;;;;;;;39.38;21.10;;;1.80;99.90;;;;;;2080713;28;20479;-74
2024/01/06 04:39:21;;;;;;;39.63;21.58;;;1.80;99.90;;;;;;2085371;28;20144;-74
2024/01/06 04:40:22;;;;;;;38.42;21.08;;;1.80;99.90;;;;;;2084487;28;20035;-73
2024/01/06 04:41:23;;;;;;;39.53;21.02;;;1.70;99.90;;;;;;2076382;28;20029;-73
2024/01/06 04:42:23;;;;;;;39.03;20.88;;;1.70;99.90;;;;;;2084592;28;20029;-74
2024/01/06 04:43:24;;;;;;;38.80;21.08;;;1.70;99.90;;;;;;2077337;28;20022;-74
2024/01/06 04:44:25;;;;;;;40.28;21.83;;;1.70;99.90;;;;;;2067174;28;20021;-75
2024/01/06 04:45:25;;;;;;;36.85;21.10;;;1.70;99.90;;;;;;2064926;28;20549;-72
2024/01/06 04:46:26;;;;;;;35.22;20.77;;;1.60;99.90;;;;;;2076550;28;20808;-72
2024/01/06 04:47:27;;;;;;;38.95;21.65;;;1.60;99.90;;;;;;2075200;28;20224;-75
2024/01/06 04:48:28;;;;;;;37.20;21.67;;;1.60;99.90;;;;;;2082291;28;20490;-73
2024/01/06 04:49:28;;;;;;;41.10;21.52;;;1.60;99.90;;;;;;2077196;28;20073;-75
2024/01/06 04:50:29;;;;;;;37.03;20.52;;;1.70;99.90;;;;;;2082562;28;20040;-74
2024/01/06 04:51:30;;;;;;;38.53;21.45;;;1.70;99.90;;;;;;2080004;28;20017;-74
2024/01/06 04:52:31;;;;;;;38.05;21.35;;;1.70;99.90;;;;;;2082119;28;20021;-74
2024/01/06 04:53:31;;;;;;;37.85;21.52;;;1.70;99.90;;;;;;2075074;28;20029;-74
2024/01/06 04:54:32;;;;;;;39.20;21.23;;;1.80;99.90;;;;;;2074263;28;20107;-74
2024/01/06 04:55:32;;;;;;;39.78;21.35;;;1.80;99.90;;;;;;2059969;28;20042;-74
2024/01/06 04:56:33;;;;;;;37.00;20.63;;;1.80;99.90;;;;;;2070147;28;20091;-73
2024/01/06 04:57:33;;;;;;;37.58;21.50;;;1.80;99.90;;;;;;2079153;28;20048;-73
2024/01/06 04:58:34;;;;;;;40.60;21.92;;;1.80;99.90;;;;;;2082735;28;20021;-73
2024/01/06 04:59:35;;;;;;;38.80;21.45;;;1.80;99.90;;;;;;2076928;28;20028;-75
2024/01/06 05:00:36;;;;;;;39.13;21.42;;;1.90;99.90;;;;;;2068104;28;20535;-74
2024/01/06 05:01:36;;;;;;;36.30;21.20;;;1.90;99.90;;;;;;2072159;28;20568;-74
2024/01/06 05:02:37;;;;;;;41.45;21.35;;;1.90;99.90;;;;;;2082573;28;20025;-74
2024/01/06 05:03:37;;;;;;;37.33;21.17;;;1.90;99.90;;;;;;2085045;28;20037;-74
2024/01/06 05:04:38;;;;;;;37.40;21.08;;;1.90;99.90;;;;;;2085072;28;20649;-73
2024/01/06 05:05:38;;;;;;;38.63;20.92;;;1.90;99.90;;;;;;2076132;28;20072;-73
2024/01/06 05:06:39;;;;;;;41.42;21.83;;;1.90;99.90;;;;;;2067855;28;20144;-73
2024/01/06 05:07:39;;;;;;;38.42;21.80;;;1.90;99.90;;;;;;2063688;28;20112;-72
2024/01/06 05:08:44;;;;;;;38.75;21.17;;;1.90;99.90;;;;;;2063946;28;20033;-73
2024/01/06 05:09:44;;;;;;;37.78;21.85;;;1.90;99.90;;;;;;2068158;28;20038;-73
2024/01/06 05:10:46;;;;;;;37.00;21.83;;;1.90;99.90;;;;;;2072006;28;20111;-73
2024/01/06 05:11:47;;;;;;;36.53;21.60;;;2.00;99.90;;;;;;2060649;28;20475;-72